createdAt,value
2023-02-06T00:01:22.338Z,65.50
2023-02-06T00:03:50.161Z,65.61
2023-02-06T00:06:18.180Z,65.47
2023-02-06T00:08:46.036Z,65.40
2023-02-06T00:11:16.799Z,64.97
2023-02-06T00:13:45.634Z,64.61
2023-02-06T00:16:24.538Z,64.36
2023-02-06T00:18:54.298Z,63.78
2023-02-06T00:21:24.747Z,63.72
2023-02-06T00:23:55.854Z,63.68
2023-02-06T00:26:24.512Z,63.77
2023-02-06T00:28:52.610Z,63.98
2023-02-06T00:31:20.429Z,64.01
2023-02-06T00:33:48.195Z,64.24
2023-02-06T00:36:16.026Z,64.31
2023-02-06T00:38:43.536Z,64.13
2023-02-06T00:41:11.084Z,64.09
2023-02-06T00:43:39.002Z,63.85
2023-02-06T00:46:06.648Z,63.70
2023-02-06T00:48:34.209Z,63.49
2023-02-06T00:51:02.062Z,62.95
2023-02-06T00:53:29.739Z,62.71
2023-02-06T00:55:58.606Z,62.40
2023-02-06T00:58:26.497Z,62.12
2023-02-06T01:00:54.210Z,62.23
2023-02-06T01:03:22.092Z,62.00
2023-02-06T01:05:50.098Z,62.26
2023-02-06T01:08:17.619Z,62.29
2023-02-06T01:10:45.900Z,62.06
2023-02-06T01:13:14.130Z,62.31
2023-02-06T01:15:41.849Z,62.40
2023-02-06T01:18:09.645Z,62.43
2023-02-06T01:20:41.037Z,62.44
2023-02-06T01:23:08.708Z,62.87
2023-02-06T01:25:37.817Z,62.64
2023-02-06T01:28:05.800Z,62.65
2023-02-06T01:30:33.396Z,62.70
2023-02-06T01:33:00.989Z,62.77
2023-02-06T01:35:29.674Z,62.18
2023-02-06T01:37:57.131Z,62.76
2023-02-06T01:40:24.626Z,63.32
2023-02-06T01:42:52.460Z,63.30
2023-02-06T01:45:26.202Z,63.28
2023-02-06T01:48:05.568Z,63.43
2023-02-06T01:50:36.149Z,62.82
2023-02-06T01:53:06.507Z,62.58
2023-02-06T01:55:38.081Z,62.62
2023-02-06T01:58:07.791Z,62.50
2023-02-06T02:00:35.733Z,62.51
2023-02-06T02:03:04.905Z,62.55
2023-02-06T02:05:33.806Z,62.30
2023-02-06T02:08:10.429Z,61.65
2023-02-06T02:10:39.056Z,61.76
2023-02-06T02:13:06.645Z,61.54
2023-02-06T02:16:00.932Z,61.54
2023-02-06T02:19:11.189Z,61.30
2023-02-06T02:22:03.648Z,61.53
2023-02-06T02:24:51.097Z,61.66
2023-02-06T02:27:47.853Z,62.01
2023-02-06T02:30:51.469Z,62.16
2023-02-06T02:33:43.323Z,61.95
2023-02-06T02:36:30.458Z,61.58
2023-02-06T02:39:24.615Z,61.77
2023-02-06T02:42:20.869Z,61.73
2023-02-06T02:45:03.849Z,61.72
2023-02-06T02:47:45.640Z,62.22
2023-02-06T02:50:14.601Z,62.44
2023-02-06T02:52:42.662Z,62.62
2023-02-06T02:55:18.487Z,62.25
2023-02-06T02:57:48.577Z,62.04
2023-02-06T03:00:17.894Z,62.21
2023-02-06T03:02:48.717Z,62.58
2023-02-06T03:05:20.660Z,62.53
2023-02-06T03:08:10.540Z,62.95
2023-02-06T03:11:02.570Z,62.52
2023-02-06T03:13:37.052Z,62.63
2023-02-06T03:16:22.919Z,62.88
2023-02-06T03:19:23.084Z,62.65
2023-02-06T03:21:50.750Z,63.44
2023-02-06T03:24:29.366Z,63.45
2023-02-06T03:27:03.718Z,63.72
2023-02-06T03:29:35.513Z,62.85
2023-02-06T03:32:13.631Z,62.71
2023-02-06T03:35:02.028Z,62.57
2023-02-06T03:37:30.289Z,62.49
2023-02-06T03:40:00.793Z,62.71
2023-02-06T03:42:30.805Z,62.58
2023-02-06T03:45:06.468Z,62.65
2023-02-06T03:47:38.392Z,62.44
2023-02-06T03:50:09.488Z,62.74
2023-02-06T03:52:41.369Z,63.18
2023-02-06T03:55:14.188Z,64.35
2023-02-06T03:57:44.967Z,64.50
2023-02-06T04:00:13.431Z,63.67
2023-02-06T04:02:42.663Z,64.50
2023-02-06T04:05:10.198Z,64.57
2023-02-06T04:07:38.381Z,64.35
2023-02-06T04:10:06.686Z,64.80
2023-02-06T04:12:34.223Z,64.88
2023-02-06T04:15:01.808Z,65.31
2023-02-06T04:17:46.385Z,65.25
2023-02-06T04:20:17.186Z,65.53
2023-02-06T04:22:45.435Z,65.59
2023-02-06T04:25:13.094Z,65.81
2023-02-06T04:27:40.631Z,65.78
2023-02-06T04:30:09.256Z,65.75
2023-02-06T04:32:36.819Z,65.69
2023-02-06T04:35:04.750Z,65.91
2023-02-06T04:37:33.135Z,65.75
2023-02-06T04:40:00.703Z,65.23
2023-02-06T04:42:28.262Z,65.51
2023-02-06T04:44:56.114Z,65.82
2023-02-06T04:47:23.649Z,65.49
2023-02-06T04:49:51.192Z,65.12
2023-02-06T04:52:18.969Z,65.09
2023-02-06T04:54:46.448Z,65.02
2023-02-06T04:57:13.980Z,65.04
2023-02-06T04:59:41.796Z,64.71
2023-02-06T05:02:09.325Z,64.44
2023-02-06T05:04:38.955Z,64.69
2023-02-06T05:07:06.785Z,64.37
2023-02-06T05:09:34.321Z,63.83
2023-02-06T05:12:01.792Z,63.75
2023-02-06T05:14:29.560Z,63.90
2023-02-06T05:16:57.077Z,63.67
2023-02-06T05:19:24.744Z,63.78
2023-02-06T05:21:52.568Z,64.09
2023-02-06T05:24:20.106Z,63.60
2023-02-06T05:26:47.801Z,63.22
2023-02-06T05:29:15.626Z,62.77
2023-02-06T05:31:43.250Z,62.52
2023-02-06T05:34:10.798Z,62.70
2023-02-06T05:36:38.878Z,62.94
2023-02-06T05:39:06.398Z,62.68
2023-02-06T05:41:33.964Z,63.53
2023-02-06T05:44:01.810Z,63.52
2023-02-06T05:46:29.358Z,63.25
2023-02-06T05:48:56.853Z,63.47
2023-02-06T05:51:24.694Z,63.57
2023-02-06T05:53:52.199Z,63.69
2023-02-06T05:56:19.732Z,63.12
2023-02-06T05:58:47.637Z,62.49
2023-02-06T06:01:15.175Z,62.51
2023-02-06T06:03:43.151Z,62.41
2023-02-06T06:06:10.799Z,62.20
2023-02-06T06:08:38.511Z,62.65
2023-02-06T06:11:07.401Z,62.68
2023-02-06T06:13:34.916Z,62.85
2023-02-06T06:16:02.459Z,62.47
2023-02-06T06:18:30.330Z,62.54
2023-02-06T06:20:57.882Z,62.44
2023-02-06T06:23:25.352Z,62.82
2023-02-06T06:25:53.502Z,62.97
2023-02-06T06:28:21.039Z,62.84
2023-02-06T06:30:48.567Z,62.88
2023-02-06T06:33:16.787Z,62.70
2023-02-06T06:35:44.290Z,62.54
2023-02-06T06:38:11.810Z,62.70
2023-02-06T06:40:41.205Z,62.70
2023-02-06T06:43:08.722Z,63.00
2023-02-06T06:45:36.466Z,63.11
2023-02-06T06:48:04.586Z,63.58
2023-02-06T06:50:32.144Z,63.78
2023-02-06T06:52:59.672Z,63.89
2023-02-06T06:55:27.773Z,63.86
2023-02-06T06:57:55.335Z,63.87
2023-02-06T07:00:22.955Z,63.89
2023-02-06T07:02:51.571Z,63.86
2023-02-06T07:05:19.253Z,63.69
2023-02-06T07:07:46.969Z,63.69
2023-02-06T07:10:14.747Z,63.73
2023-02-06T07:12:42.362Z,63.42
2023-02-06T07:15:10.341Z,63.25
2023-02-06T07:17:38.862Z,63.21
2023-02-06T07:20:06.865Z,63.31
2023-02-06T07:22:34.442Z,62.92
2023-02-06T07:25:02.300Z,62.76
2023-02-06T07:27:29.912Z,62.54
2023-02-06T07:29:57.437Z,62.09
2023-02-06T07:32:25.833Z,61.33
2023-02-06T07:34:53.382Z,60.55
2023-02-06T07:37:20.874Z,59.94
2023-02-06T07:39:48.750Z,59.05
2023-02-06T07:42:16.220Z,58.30
2023-02-06T07:44:43.973Z,57.29
2023-02-06T07:47:11.830Z,56.70
2023-02-06T07:49:39.358Z,55.78
2023-02-06T07:52:06.886Z,55.50
2023-02-06T07:54:34.785Z,54.64
2023-02-06T07:57:02.506Z,53.96
2023-02-06T07:59:30.193Z,53.17
2023-02-06T08:01:58.319Z,52.24
2023-02-06T08:04:28.161Z,51.13
2023-02-06T08:06:55.756Z,50.51
2023-02-06T08:09:23.282Z,50.11
2023-02-06T08:11:51.151Z,48.56
2023-02-06T08:14:18.708Z,48.21
2023-02-06T08:16:46.334Z,46.73
2023-02-06T08:19:14.235Z,45.89
2023-02-06T08:21:41.820Z,45.29
2023-02-06T08:24:11.883Z,44.79
2023-02-06T08:26:40.119Z,44.09
2023-02-06T08:29:08.128Z,43.46
2023-02-06T08:31:38.366Z,43.18
2023-02-06T08:34:08.290Z,42.77
2023-02-06T08:36:36.298Z,43.12
2023-02-06T08:39:05.365Z,41.85
2023-02-06T08:41:37.205Z,41.33
2023-02-06T08:44:09.169Z,41.46
2023-02-06T08:46:37.087Z,42.29
2023-02-06T08:49:16.445Z,42.36
2023-02-06T08:51:45.369Z,41.75
2023-02-06T08:54:16.346Z,41.20
2023-02-06T08:56:45.161Z,41.34
2023-02-06T08:59:14.682Z,40.45
2023-02-06T09:01:45.477Z,40.27
2023-02-06T09:04:14.254Z,39.58
2023-02-06T09:06:44.447Z,39.88
2023-02-06T09:09:13.357Z,39.13
2023-02-06T09:11:41.640Z,39.43
2023-02-06T09:14:15.818Z,39.32
2023-02-06T09:16:44.085Z,39.20
2023-02-06T09:19:12.538Z,39.13
2023-02-06T09:21:40.484Z,39.24
2023-02-06T09:24:09.621Z,38.71
2023-02-06T09:26:57.039Z,38.01
2023-02-06T09:29:28.781Z,38.14
2023-02-06T09:31:57.619Z,37.94
2023-02-06T09:34:26.372Z,37.61
2023-02-06T09:36:55.091Z,37.96
2023-02-06T09:39:22.668Z,37.33
2023-02-06T09:42:16.597Z,37.71
2023-02-06T09:45:15.272Z,37.83
2023-02-06T09:47:53.942Z,37.76
2023-02-06T09:50:27.550Z,37.48
2023-02-06T09:53:23.618Z,36.76
2023-02-06T09:56:03.081Z,36.68
2023-02-06T09:58:47.184Z,36.64
2023-02-06T10:01:33.248Z,36.74
2023-02-06T10:04:13.192Z,36.54
2023-02-06T10:07:03.759Z,36.51
2023-02-06T10:09:47.161Z,36.73
2023-02-06T10:12:17.308Z,36.24
2023-02-06T10:14:54.625Z,37.01
2023-02-06T10:18:02.865Z,37.08
2023-02-06T10:20:35.978Z,37.20
2023-02-06T10:23:20.393Z,37.53
2023-02-06T10:26:03.802Z,37.76
2023-02-06T10:28:33.442Z,38.29
2023-02-06T10:31:53.252Z,38.74
2023-02-06T10:34:35.748Z,38.93
2023-02-06T10:37:22.494Z,39.93
2023-02-06T10:40:08.453Z,40.62
2023-02-06T10:42:59.269Z,40.26
2023-02-06T10:45:46.352Z,40.64
2023-02-06T10:48:37.419Z,41.14
2023-02-06T10:51:14.353Z,41.23
2023-02-06T10:53:52.421Z,40.19
2023-02-06T10:56:27.637Z,39.09
2023-02-06T10:59:02.168Z,38.50
2023-02-06T11:01:34.899Z,38.73
2023-02-06T11:04:12.318Z,39.61
2023-02-06T11:06:42.579Z,39.86
2023-02-06T11:09:10.821Z,39.01
2023-02-06T11:11:41.926Z,38.96
2023-02-06T11:14:28.705Z,39.80
2023-02-06T11:17:00.266Z,40.01
2023-02-06T11:19:33.667Z,40.26
2023-02-06T11:22:16.244Z,40.08
2023-02-06T11:25:22.920Z,39.83
2023-02-06T11:27:50.733Z,38.95
2023-02-06T11:30:33.509Z,38.02
2023-02-06T11:33:23.314Z,38.13
2023-02-06T11:36:00.001Z,37.58
2023-02-06T11:38:29.665Z,37.83
2023-02-06T11:41:03.874Z,37.87
2023-02-06T11:43:50.758Z,38.65
2023-02-06T11:46:24.645Z,38.90
2023-02-06T11:48:59.589Z,39.61
2023-02-06T11:51:46.966Z,40.00
2023-02-06T11:54:31.225Z,40.07
2023-02-06T11:57:19.067Z,40.16
2023-02-06T11:59:52.581Z,40.78
2023-02-06T12:02:38.880Z,40.35
2023-02-06T12:05:17.040Z,40.83
2023-02-06T12:07:56.829Z,40.73
2023-02-06T12:10:26.277Z,41.01
2023-02-06T12:12:58.002Z,41.87
2023-02-06T12:15:46.433Z,41.72
2023-02-06T12:18:18.933Z,41.62
2023-02-06T12:20:59.294Z,40.35
2023-02-06T12:23:44.035Z,40.11
2023-02-06T12:26:16.772Z,40.65
2023-02-06T12:29:03.137Z,40.58
2023-02-06T12:31:55.819Z,41.69
2023-02-06T12:34:28.838Z,41.30
2023-02-06T12:37:13.951Z,41.73
2023-02-06T12:39:43.709Z,41.63
2023-02-06T12:42:33.020Z,41.98
2023-02-06T12:45:28.065Z,42.51
2023-02-06T12:48:07.230Z,42.24
2023-02-06T12:50:44.465Z,41.06
2023-02-06T12:53:20.374Z,40.40
2023-02-06T12:55:55.908Z,40.33
2023-02-06T12:58:32.021Z,40.32
2023-02-06T13:01:34.200Z,40.24
2023-02-06T13:04:10.204Z,40.95
2023-02-06T13:07:05.018Z,41.35
2023-02-06T13:09:41.845Z,41.25
2023-02-06T13:12:15.990Z,41.55
2023-02-06T13:14:50.161Z,41.41
2023-02-06T13:17:23.868Z,42.01
2023-02-06T13:20:11.256Z,41.34
2023-02-06T13:22:51.073Z,41.39
2023-02-06T13:25:30.783Z,41.15
2023-02-06T13:28:22.434Z,41.58
2023-02-06T13:31:03.395Z,41.73
2023-02-06T13:33:52.292Z,41.86
2023-02-06T13:36:49.264Z,41.78
2023-02-06T13:39:46.567Z,42.09
2023-02-06T13:42:39.001Z,42.23
2023-02-06T13:45:14.408Z,42.48
2023-02-06T13:48:07.335Z,42.96
2023-02-06T13:51:08.317Z,42.73
2023-02-06T13:53:48.142Z,42.51
2023-02-06T13:56:38.509Z,42.98
2023-02-06T13:59:32.757Z,43.13
2023-02-06T14:02:30.129Z,42.73
2023-02-06T14:04:58.984Z,42.67
2023-02-06T14:07:53.463Z,42.68
2023-02-06T14:10:44.908Z,42.80
2023-02-06T14:13:39.383Z,42.95
2023-02-06T14:16:33.514Z,42.71
2023-02-06T14:19:21.422Z,42.88
2023-02-06T14:21:55.326Z,42.89
2023-02-06T14:24:50.525Z,43.04
2023-02-06T14:28:06.567Z,43.31
2023-02-06T14:30:58.903Z,43.81
2023-02-06T14:33:58.200Z,43.34
2023-02-06T14:36:42.270Z,43.53
2023-02-06T14:39:32.766Z,43.35
2023-02-06T14:42:12.125Z,43.38
2023-02-06T14:44:42.944Z,44.28
2023-02-06T14:47:20.741Z,44.28
2023-02-06T14:49:49.653Z,44.72
2023-02-06T14:52:22.140Z,45.31
2023-02-06T14:54:50.885Z,45.40
2023-02-06T14:57:27.923Z,45.61
2023-02-06T15:00:01.577Z,76.11
2023-02-06T15:02:35.008Z,74.65
2023-02-06T15:05:04.637Z,64.39
2023-02-06T15:07:35.932Z,64.20
2023-02-06T15:10:18.368Z,61.12
2023-02-06T15:12:53.621Z,57.73
2023-02-06T15:15:24.612Z,55.43
2023-02-06T15:18:05.078Z,40.04
2023-02-06T15:20:40.658Z,36.79
2023-02-06T15:23:30.373Z,38.05
2023-02-06T15:26:03.006Z,39.88
2023-02-06T15:28:33.225Z,41.55
2023-02-06T15:31:01.940Z,42.46
2023-02-06T15:33:34.784Z,43.15
2023-02-06T15:36:04.448Z,43.89
2023-02-06T15:38:33.597Z,44.92
2023-02-06T15:41:05.735Z,45.54
2023-02-06T15:43:34.490Z,46.19
2023-02-06T15:46:04.485Z,46.96
2023-02-06T15:48:41.514Z,47.21
2023-02-06T15:51:21.316Z,47.74
2023-02-06T15:53:51.105Z,48.51
2023-02-06T15:56:29.894Z,48.58
2023-02-06T15:59:14.481Z,49.19
2023-02-06T16:01:43.651Z,49.78
2023-02-06T16:04:32.246Z,80.06
2023-02-06T16:07:19.762Z,71.07
2023-02-06T16:09:59.508Z,63.61
2023-02-06T16:12:27.166Z,57.68
2023-02-06T16:14:58.030Z,43.93
2023-02-06T16:17:31.625Z,44.57
2023-02-06T16:20:05.749Z,45.03
2023-02-06T16:22:37.904Z,47.61
2023-02-06T16:25:32.982Z,47.12
2023-02-06T16:28:00.774Z,47.47
2023-02-06T16:30:30.151Z,48.19
2023-02-06T16:33:00.440Z,48.93
2023-02-06T16:35:28.234Z,49.41
2023-02-06T16:37:55.754Z,50.40
2023-02-06T16:40:26.173Z,50.81
2023-02-06T16:42:54.331Z,51.35
2023-02-06T16:45:27.234Z,51.33
2023-02-06T16:47:55.530Z,51.87
2023-02-06T16:50:23.041Z,51.93
2023-02-06T16:52:57.073Z,52.40
2023-02-06T16:55:26.366Z,52.55
2023-02-06T16:57:58.756Z,52.95
2023-02-06T17:00:31.241Z,53.48
2023-02-06T17:02:59.964Z,54.02
2023-02-06T17:05:28.465Z,54.33
2023-02-06T17:07:56.344Z,54.92
2023-02-06T17:10:26.356Z,55.35
2023-02-06T17:12:54.337Z,55.95
2023-02-06T17:15:21.890Z,56.81
2023-02-06T17:17:49.484Z,57.45
2023-02-06T17:20:37.416Z,58.11
2023-02-06T17:23:05.658Z,58.22
2023-02-06T17:25:33.571Z,59.10
2023-02-06T17:28:01.842Z,59.27
2023-02-06T17:30:29.631Z,59.32
2023-02-06T17:32:57.638Z,59.23
2023-02-06T17:35:25.655Z,59.62
2023-02-06T17:37:53.592Z,59.53
2023-02-06T17:40:25.849Z,59.71
2023-02-06T17:42:54.242Z,59.43
2023-02-06T17:45:22.218Z,59.31
2023-02-06T17:47:50.518Z,59.53
2023-02-06T17:50:23.166Z,59.46
2023-02-06T17:52:53.525Z,59.54
2023-02-06T17:55:21.882Z,59.24
2023-02-06T17:57:49.649Z,59.35
2023-02-06T18:00:20.395Z,58.87
2023-02-06T18:02:48.358Z,58.80
2023-02-06T18:05:16.007Z,59.37
2023-02-06T18:07:43.696Z,59.85
2023-02-06T18:10:12.766Z,60.09
2023-02-06T18:12:40.368Z,59.86
2023-02-06T18:15:08.638Z,59.94
2023-02-06T18:17:36.558Z,60.08
2023-02-06T18:20:04.648Z,60.33
2023-02-06T18:22:40.059Z,60.42
2023-02-06T18:25:13.412Z,60.58
2023-02-06T18:27:42.880Z,60.46
2023-02-06T18:30:11.842Z,60.68
2023-02-06T18:32:39.999Z,60.69
2023-02-06T18:35:09.119Z,60.66
2023-02-06T18:37:37.248Z,60.59
2023-02-06T18:40:05.196Z,61.03
2023-02-06T18:42:51.638Z,60.93
2023-02-06T18:45:21.614Z,60.86
2023-02-06T18:47:51.373Z,60.80
2023-02-06T18:50:21.764Z,61.00
2023-02-06T18:52:49.923Z,60.85
2023-02-06T18:55:17.468Z,60.75
2023-02-06T18:57:46.412Z,60.73
2023-02-06T19:00:15.907Z,61.05
2023-02-06T19:02:43.548Z,61.33
2023-02-06T19:05:11.525Z,61.67
2023-02-06T19:07:39.183Z,62.49
2023-02-06T19:10:16.171Z,63.56
2023-02-06T19:12:44.200Z,63.88
2023-02-06T19:15:13.211Z,64.31
2023-02-06T19:17:41.780Z,64.94
2023-02-06T19:20:11.293Z,65.16
2023-02-06T19:22:38.970Z,65.29
2023-02-06T19:25:10.917Z,64.67
2023-02-06T19:27:39.654Z,63.88
2023-02-06T19:30:08.107Z,63.45
2023-02-06T19:32:35.736Z,63.51
2023-02-06T19:35:04.635Z,63.40
2023-02-06T19:37:32.166Z,63.29
2023-02-06T19:39:59.812Z,62.74
2023-02-06T19:42:27.737Z,63.15
2023-02-06T19:44:55.430Z,62.79
2023-02-06T19:47:23.526Z,62.65
2023-02-06T19:49:52.856Z,62.38
2023-02-06T19:52:21.217Z,62.16
2023-02-06T19:54:48.835Z,61.88
2023-02-06T19:57:19.339Z,62.14
2023-02-06T19:59:46.897Z,61.91
2023-02-06T20:02:16.012Z,62.03
2023-02-06T20:04:45.287Z,62.04
2023-02-06T20:07:12.817Z,62.06
2023-02-06T20:09:42.093Z,62.20
2023-02-06T20:12:12.421Z,62.40
2023-02-06T20:14:39.971Z,62.53
2023-02-06T20:17:07.613Z,62.66
2023-02-06T20:19:35.484Z,62.90
2023-02-06T20:22:04.412Z,62.88
2023-02-06T20:24:33.238Z,63.03
2023-02-06T20:27:04.322Z,63.25
2023-02-06T20:29:37.589Z,63.58
2023-02-06T20:32:06.420Z,63.74
2023-02-06T20:34:35.091Z,63.87
2023-02-06T20:37:03.005Z,64.16
2023-02-06T20:39:31.265Z,64.42
2023-02-06T20:41:59.107Z,64.72
2023-02-06T20:44:27.420Z,64.95
2023-02-06T20:46:55.314Z,65.12
2023-02-06T20:49:26.136Z,65.04
2023-02-06T20:51:54.161Z,65.04
2023-02-06T20:54:23.821Z,65.18
2023-02-06T20:56:52.036Z,64.98
2023-02-06T20:59:20.487Z,64.83
2023-02-06T21:01:48.695Z,64.92
2023-02-06T21:04:17.088Z,65.02
2023-02-06T21:06:46.555Z,65.53
2023-02-06T21:09:15.030Z,65.89
2023-02-06T21:11:48.080Z,66.25
2023-02-06T21:14:16.884Z,66.55
2023-02-06T21:16:44.627Z,66.84
2023-02-06T21:19:15.214Z,67.00
2023-02-06T21:21:46.004Z,66.97
2023-02-06T21:24:14.532Z,67.23
2023-02-06T21:26:42.128Z,67.29
2023-02-06T21:29:12.308Z,67.34
2023-02-06T21:31:40.189Z,67.33
2023-02-06T21:34:11.462Z,67.53
2023-02-06T21:36:40.292Z,67.80
2023-02-06T21:39:09.063Z,67.91
2023-02-06T21:41:37.336Z,68.16
2023-02-06T21:44:05.350Z,68.33
2023-02-06T21:46:33.537Z,68.30
2023-02-06T21:49:01.132Z,68.25
2023-02-06T21:51:29.049Z,68.42
2023-02-06T21:53:56.958Z,68.38
2023-02-06T21:56:26.633Z,68.56
2023-02-06T21:58:54.596Z,68.62
2023-02-06T22:01:25.991Z,68.73
2023-02-06T22:03:54.706Z,68.78
2023-02-06T22:06:22.577Z,68.76
2023-02-06T22:08:52.232Z,68.63
2023-02-06T22:11:26.221Z,68.42
2023-02-06T22:13:58.163Z,68.22
2023-02-06T22:16:26.624Z,67.99
2023-02-06T22:18:54.874Z,67.93
2023-02-06T22:21:25.326Z,67.83
2023-02-06T22:23:57.020Z,67.62
2023-02-06T22:26:25.520Z,67.75
2023-02-06T22:28:53.566Z,68.24
2023-02-06T22:31:23.748Z,68.92
2023-02-06T22:33:51.990Z,68.71
2023-02-06T22:36:22.877Z,69.61
2023-02-06T22:38:57.783Z,69.88
2023-02-06T22:41:26.193Z,69.85
2023-02-06T22:43:53.810Z,69.91
2023-02-06T22:46:33.863Z,69.73
2023-02-06T22:49:02.319Z,69.55
2023-02-06T22:51:29.938Z,69.41
2023-02-06T22:53:57.511Z,69.25
2023-02-06T22:56:38.007Z,69.14
2023-02-06T22:59:19.267Z,68.90
2023-02-06T23:01:50.082Z,69.00
2023-02-06T23:04:23.368Z,68.41
2023-02-06T23:06:51.835Z,68.31
2023-02-06T23:09:24.789Z,68.57
2023-02-06T23:11:53.558Z,68.51
2023-02-06T23:14:21.461Z,68.53
2023-02-06T23:16:49.003Z,68.25
2023-02-06T23:19:17.769Z,68.43
2023-02-06T23:21:47.477Z,68.34
2023-02-06T23:24:15.976Z,68.41
2023-02-06T23:26:47.748Z,68.29
2023-02-06T23:29:17.890Z,68.17
2023-02-06T23:31:47.063Z,68.40
2023-02-06T23:34:15.592Z,68.32
2023-02-06T23:36:43.493Z,68.46
2023-02-06T23:39:12.068Z,68.52
2023-02-06T23:41:39.940Z,68.44
2023-02-06T23:44:08.884Z,68.48
2023-02-06T23:46:38.581Z,68.47
2023-02-06T23:49:06.732Z,68.40
2023-02-06T23:51:35.254Z,68.61
2023-02-06T23:54:03.215Z,68.74
2023-02-06T23:56:31.932Z,68.56
2023-02-06T23:59:00.772Z,68.70
